createdAt,value
2024-04-24T00:00:51.655Z,8.40
2024-04-24T00:03:19.088Z,8.40
2024-04-24T00:05:50.262Z,8.40
2024-04-24T00:08:22.702Z,8.40
2024-04-24T00:10:56.183Z,8.30
2024-04-24T00:13:23.389Z,8.30
2024-04-24T00:15:53.395Z,8.30
2024-04-24T00:18:24.736Z,8.30
2024-04-24T00:20:57.974Z,8.20
2024-04-24T00:23:30.475Z,8.20
2024-04-24T00:25:58.032Z,8.20
2024-04-24T00:28:27.946Z,8.10
2024-04-24T00:31:01.768Z,8.10
2024-04-24T00:33:32.670Z,8.00
2024-04-24T00:36:02.497Z,8.00
2024-04-24T00:38:35.005Z,7.90
2024-04-24T00:41:04.883Z,7.90
2024-04-24T00:43:34.713Z,7.90
2024-04-24T00:46:04.643Z,7.80
2024-04-24T00:48:36.472Z,7.80
2024-04-24T00:51:06.778Z,7.80
2024-04-24T00:53:40.656Z,7.80
2024-04-24T00:56:11.137Z,7.80
2024-04-24T00:58:41.322Z,7.80
2024-04-24T01:01:11.112Z,7.70
2024-04-24T01:03:40.974Z,7.80
2024-04-24T01:06:10.792Z,7.70
2024-04-24T01:08:43.346Z,7.80
2024-04-24T01:11:13.258Z,7.80
2024-04-24T01:13:43.115Z,7.80
2024-04-24T01:16:16.895Z,7.90
2024-04-24T01:18:51.949Z,7.90
2024-04-24T01:21:25.373Z,7.90
2024-04-24T01:24:07.732Z,7.90
2024-04-24T01:26:48.806Z,7.90
2024-04-24T01:29:16.379Z,7.80
2024-04-24T01:31:46.297Z,7.80
2024-04-24T01:34:16.354Z,7.80
2024-04-24T01:36:46.111Z,7.80
2024-04-24T01:39:15.889Z,7.80
2024-04-24T01:41:48.303Z,7.90
2024-04-24T01:44:15.507Z,7.80
2024-04-24T01:46:45.334Z,7.90
2024-04-24T01:49:15.138Z,7.90
2024-04-24T01:51:45.093Z,7.90
2024-04-24T01:54:14.871Z,7.90
2024-04-24T01:56:44.667Z,7.90
2024-04-24T01:59:17.313Z,7.90
2024-04-24T02:01:47.188Z,7.90
2024-04-24T02:04:16.999Z,7.90
2024-04-24T02:06:46.810Z,7.90
2024-04-24T02:09:16.639Z,7.90
2024-04-24T02:11:51.314Z,7.90
2024-04-24T02:14:29.905Z,7.90
2024-04-24T02:16:59.746Z,7.90
2024-04-24T02:19:29.541Z,7.90
2024-04-24T02:21:59.320Z,7.80
2024-04-24T02:24:41.308Z,7.80
2024-04-24T02:27:11.149Z,7.80
2024-04-24T02:29:51.468Z,7.80
2024-04-24T02:32:26.057Z,7.60
2024-04-24T02:34:55.960Z,7.50
2024-04-24T02:37:25.742Z,7.50
2024-04-24T02:39:56.429Z,7.50
2024-04-24T02:42:26.230Z,7.40
2024-04-24T02:44:58.647Z,7.40
2024-04-24T02:47:28.554Z,7.40
2024-04-24T02:49:58.405Z,7.30
2024-04-24T02:52:28.214Z,7.30
2024-04-24T02:54:58.453Z,7.40
2024-04-24T02:57:29.717Z,7.30
2024-04-24T03:00:02.342Z,7.30
2024-04-24T03:02:32.722Z,7.30
2024-04-24T03:05:02.652Z,7.30
2024-04-24T03:07:32.875Z,7.30
2024-04-24T03:10:02.648Z,7.30
2024-04-24T03:12:32.730Z,7.30
2024-04-24T03:15:05.417Z,7.30
2024-04-24T03:17:35.214Z,7.30
2024-04-24T03:20:05.099Z,7.30
2024-04-24T03:22:37.402Z,7.30
2024-04-24T03:25:07.851Z,7.20
2024-04-24T03:27:37.579Z,7.20
2024-04-24T03:30:11.253Z,7.20
2024-04-24T03:32:42.186Z,7.20
2024-04-24T03:35:12.593Z,7.20
2024-04-24T03:37:42.817Z,7.20
2024-04-24T03:40:14.348Z,7.20
2024-04-24T03:42:46.047Z,7.20
2024-04-24T03:45:18.558Z,7.20
2024-04-24T03:47:48.560Z,7.20
2024-04-24T03:50:18.459Z,7.10
2024-04-24T03:52:49.457Z,7.10
2024-04-24T03:55:19.245Z,7.10
2024-04-24T03:57:49.023Z,7.10
2024-04-24T04:00:21.601Z,7.10
2024-04-24T04:02:51.684Z,7.10
2024-04-24T04:05:21.585Z,7.20
2024-04-24T04:07:58.568Z,7.20
2024-04-24T04:10:28.658Z,7.20
2024-04-24T04:13:01.608Z,7.20
2024-04-24T04:15:33.981Z,7.30
2024-04-24T04:18:04.113Z,7.30
2024-04-24T04:20:33.980Z,7.30
2024-04-24T04:23:04.281Z,7.40
2024-04-24T04:25:34.226Z,7.30
2024-04-24T04:28:04.042Z,7.40
2024-04-24T04:30:36.482Z,7.40
2024-04-24T04:33:06.863Z,7.40
2024-04-24T04:35:39.799Z,7.40
2024-04-24T04:38:09.870Z,7.40
2024-04-24T04:40:39.856Z,7.40
2024-04-24T04:43:09.711Z,7.40
2024-04-24T04:45:42.349Z,7.50
2024-04-24T04:48:12.287Z,7.40
2024-04-24T04:50:42.099Z,7.50
2024-04-24T04:53:12.084Z,7.40
2024-04-24T04:55:41.909Z,7.30
2024-04-24T04:58:11.939Z,7.30
2024-04-24T05:00:44.607Z,7.20
2024-04-24T05:03:14.497Z,7.20
2024-04-24T05:05:44.278Z,7.20
2024-04-24T05:08:14.292Z,7.20
2024-04-24T05:10:43.968Z,7.10
2024-04-24T05:13:14.707Z,7.20
2024-04-24T05:15:47.063Z,7.10
2024-04-24T05:18:17.006Z,7.10
2024-04-24T05:20:46.802Z,7.10
2024-04-24T05:23:16.601Z,7.10
2024-04-24T05:25:53.371Z,7.10
2024-04-24T05:28:39.276Z,7.00
2024-04-24T05:31:11.720Z,7.10
2024-04-24T05:33:41.539Z,7.10
2024-04-24T05:36:11.483Z,7.10
2024-04-24T05:38:41.210Z,7.10
2024-04-24T05:41:11.035Z,7.10
2024-04-24T05:43:40.922Z,7.20
2024-04-24T05:46:13.340Z,7.20
2024-04-24T05:48:43.846Z,7.20
2024-04-24T05:51:15.025Z,7.20
2024-04-24T05:53:44.846Z,7.30
2024-04-24T05:56:14.988Z,7.30
2024-04-24T05:58:46.578Z,7.40
2024-04-24T06:01:19.277Z,7.40
2024-04-24T06:03:49.075Z,7.50
2024-04-24T06:06:18.907Z,7.60
2024-04-24T06:08:48.682Z,7.60
2024-04-24T06:11:18.664Z,7.60
2024-04-24T06:13:48.587Z,7.70
2024-04-24T06:16:21.006Z,7.70
2024-04-24T06:18:51.108Z,7.80
2024-04-24T06:21:20.997Z,7.80
2024-04-24T06:23:50.844Z,7.90
2024-04-24T06:26:20.647Z,7.90
2024-04-24T06:28:50.593Z,7.90
2024-04-24T06:31:23.145Z,7.90
2024-04-24T06:33:53.157Z,7.90
2024-04-24T06:36:22.982Z,7.90
2024-04-24T06:38:53.907Z,7.90
2024-04-24T06:41:21.128Z,8.00
2024-04-24T06:43:50.910Z,8.10
2024-04-24T06:46:23.594Z,8.10
2024-04-24T06:48:53.538Z,8.10
2024-04-24T06:51:24.191Z,8.10
2024-04-24T06:53:54.117Z,8.10
2024-04-24T06:56:23.956Z,8.10
2024-04-24T06:58:53.733Z,8.20
2024-04-24T07:01:26.286Z,8.30
2024-04-24T07:03:56.415Z,8.20
2024-04-24T07:06:26.171Z,8.30
2024-04-24T07:08:56.095Z,8.40
2024-04-24T07:11:25.935Z,8.40
2024-04-24T07:13:55.883Z,8.40
2024-04-24T07:16:30.077Z,8.40
2024-04-24T07:18:59.928Z,8.40
2024-04-24T07:21:29.744Z,8.40
2024-04-24T07:23:59.467Z,8.40
2024-04-24T07:26:29.282Z,8.40
2024-04-24T07:28:59.060Z,8.40
2024-04-24T07:31:31.740Z,8.40
2024-04-24T07:34:01.934Z,8.50
2024-04-24T07:36:32.776Z,8.50
2024-04-24T07:39:02.543Z,8.40
2024-04-24T07:41:32.314Z,8.50
2024-04-24T07:44:02.111Z,8.60
2024-04-24T07:46:34.610Z,8.70
2024-04-24T07:49:04.371Z,8.80
2024-04-24T07:51:34.116Z,8.90
2024-04-24T07:54:03.917Z,8.90
2024-04-24T07:56:33.848Z,9.00
2024-04-24T07:59:04.040Z,9.10
2024-04-24T08:01:36.408Z,9.10
2024-04-24T08:04:06.411Z,9.20
2024-04-24T08:06:36.103Z,9.30
2024-04-24T08:09:06.610Z,9.30
2024-04-24T08:11:36.769Z,9.30
2024-04-24T08:14:07.296Z,9.30
2024-04-24T08:16:40.106Z,9.30
2024-04-24T08:19:09.938Z,9.30
2024-04-24T08:21:39.696Z,9.30
2024-04-24T08:24:09.782Z,9.30
2024-04-24T08:26:39.512Z,9.30
2024-04-24T08:29:09.223Z,9.30
2024-04-24T08:31:41.550Z,9.30
2024-04-24T08:34:11.395Z,9.30
2024-04-24T08:36:44.230Z,9.20
2024-04-24T08:39:16.388Z,9.20
2024-04-24T08:41:46.721Z,9.30
2024-04-24T08:44:16.816Z,9.20
2024-04-24T08:46:50.055Z,9.30
2024-04-24T08:49:19.828Z,9.30
2024-04-24T08:51:47.855Z,9.40
2024-04-24T08:54:20.370Z,9.40
2024-04-24T08:56:54.179Z,9.50
2024-04-24T08:59:26.703Z,9.60
2024-04-24T09:02:04.134Z,9.60
2024-04-24T09:04:35.189Z,9.70
2024-04-24T09:07:05.723Z,9.70
2024-04-24T09:09:36.873Z,9.70
2024-04-24T09:12:08.776Z,9.70
2024-04-24T09:14:38.897Z,9.70
2024-04-24T09:17:11.360Z,9.60
2024-04-24T09:19:41.320Z,9.60
2024-04-24T09:22:11.272Z,9.50
2024-04-24T09:24:46.428Z,9.50
2024-04-24T09:27:19.992Z,9.50
2024-04-24T09:29:49.714Z,9.50
2024-04-24T09:32:22.218Z,9.50
2024-04-24T09:34:52.786Z,9.40
2024-04-24T09:37:23.647Z,9.40
2024-04-24T09:39:53.699Z,9.40
2024-04-24T09:42:23.786Z,9.40
2024-04-24T09:44:53.785Z,9.40
2024-04-24T09:47:28.733Z,9.50
2024-04-24T09:49:58.782Z,9.60
2024-04-24T09:52:28.703Z,9.60
2024-04-24T09:54:58.453Z,9.60
2024-04-24T09:57:34.741Z,9.70
2024-04-24T10:00:05.520Z,9.60
2024-04-24T10:02:43.647Z,9.60
2024-04-24T10:05:20.045Z,9.60
2024-04-24T10:07:54.749Z,9.60
2024-04-24T10:10:31.118Z,9.60
2024-04-24T10:13:01.818Z,9.50
2024-04-24T10:15:38.810Z,9.50
2024-04-24T10:18:12.805Z,9.40
2024-04-24T10:20:44.751Z,9.30
2024-04-24T10:23:15.077Z,9.20
2024-04-24T10:25:46.597Z,9.20
2024-04-24T10:28:18.699Z,9.10
2024-04-24T10:30:50.541Z,9.00
2024-04-24T10:33:24.033Z,9.00
2024-04-24T10:35:54.146Z,8.90
2024-04-24T10:38:23.929Z,8.90
2024-04-24T10:40:55.422Z,8.90
2024-04-24T10:43:28.210Z,8.90
2024-04-24T10:46:01.328Z,8.90
2024-04-24T10:48:56.231Z,8.90
2024-04-24T10:51:33.165Z,8.90
2024-04-24T10:54:03.730Z,9.00
2024-04-24T10:56:39.074Z,9.00
2024-04-24T10:59:10.512Z,9.20
2024-04-24T11:01:47.580Z,9.20
2024-04-24T11:04:27.291Z,9.30
2024-04-24T11:06:57.340Z,9.40
2024-04-24T11:09:25.988Z,9.40
2024-04-24T11:11:57.585Z,9.50
2024-04-24T11:14:24.828Z,9.50
2024-04-24T11:16:58.604Z,9.60
2024-04-24T11:19:31.065Z,9.60
2024-04-24T11:22:00.830Z,9.60
2024-04-24T11:24:33.952Z,9.60
2024-04-24T11:27:05.151Z,9.70
2024-04-24T11:29:41.394Z,9.70
2024-04-24T11:32:13.314Z,9.70
2024-04-24T11:34:46.170Z,9.70
2024-04-24T11:37:16.280Z,9.80
2024-04-24T11:39:46.868Z,9.90
2024-04-24T11:42:16.615Z,10.00
2024-04-24T11:44:46.350Z,10.00
2024-04-24T11:47:20.452Z,10.10
2024-04-24T11:49:56.439Z,10.10
2024-04-24T11:52:27.484Z,10.10
2024-04-24T11:54:57.389Z,10.10
2024-04-24T11:57:27.067Z,10.10
2024-04-24T11:59:58.787Z,10.20
2024-04-24T12:02:29.087Z,10.30
2024-04-24T12:05:02.097Z,10.30
2024-04-24T12:07:32.488Z,10.40
2024-04-24T12:10:02.915Z,10.50
2024-04-24T12:12:33.107Z,10.50
2024-04-24T12:15:03.006Z,10.40
2024-04-24T12:17:32.852Z,10.40
2024-04-24T12:20:05.322Z,10.40
2024-04-24T12:22:37.059Z,10.30
2024-04-24T12:25:07.306Z,10.30
2024-04-24T12:27:37.012Z,10.40
2024-04-24T12:30:07.296Z,10.40
2024-04-24T12:32:38.062Z,10.30
2024-04-24T12:35:10.777Z,10.30
2024-04-24T12:37:40.583Z,10.40
2024-04-24T12:40:12.959Z,10.50
2024-04-24T12:42:42.713Z,10.60
2024-04-24T12:45:12.610Z,10.70
2024-04-24T12:47:42.427Z,10.80
2024-04-24T12:50:15.273Z,10.80
2024-04-24T12:52:45.100Z,10.80
2024-04-24T12:55:14.854Z,10.90
2024-04-24T12:57:44.588Z,10.90
2024-04-24T13:00:17.640Z,11.00
2024-04-24T13:02:49.809Z,11.00
2024-04-24T13:05:22.416Z,11.00
2024-04-24T13:07:52.700Z,11.00
2024-04-24T13:10:22.422Z,10.90
2024-04-24T13:12:52.343Z,11.00
2024-04-24T13:15:22.224Z,11.10
2024-04-24T13:17:52.122Z,11.30
2024-04-24T13:20:24.840Z,11.40
2024-04-24T13:22:54.621Z,11.50
2024-04-24T13:25:24.422Z,11.70
2024-04-24T13:27:54.265Z,11.70
2024-04-24T13:30:23.974Z,11.80
2024-04-24T13:32:54.064Z,11.90
2024-04-24T13:35:26.501Z,11.90
2024-04-24T13:37:56.485Z,11.90
2024-04-24T13:40:26.273Z,11.90
2024-04-24T13:42:55.974Z,11.90
2024-04-24T13:45:26.001Z,11.90
2024-04-24T13:47:56.051Z,12.10
2024-04-24T13:50:28.641Z,12.30
2024-04-24T13:52:58.496Z,12.50
2024-04-24T13:55:28.222Z,12.50
2024-04-24T13:57:58.425Z,12.60
2024-04-24T14:00:30.379Z,12.70
2024-04-24T14:03:01.341Z,12.90
2024-04-24T14:05:33.829Z,13.10
2024-04-24T14:08:03.706Z,13.30
2024-04-24T14:10:33.495Z,13.30
2024-04-24T14:13:03.528Z,13.50
2024-04-24T14:15:33.351Z,13.70
2024-04-24T14:18:03.185Z,13.80
2024-04-24T14:20:35.586Z,13.90
2024-04-24T14:23:06.024Z,13.80
2024-04-24T14:25:35.546Z,14.10
2024-04-24T14:28:05.766Z,14.20
2024-04-24T14:30:35.476Z,14.20
2024-04-24T14:33:05.386Z,14.20
2024-04-24T14:35:37.885Z,14.20
2024-04-24T14:38:10.168Z,14.10
2024-04-24T14:40:40.266Z,14.10
2024-04-24T14:43:10.063Z,13.90
2024-04-24T14:45:39.855Z,14.00
2024-04-24T14:48:10.611Z,14.10
2024-04-24T14:50:43.216Z,14.10
2024-04-24T14:53:13.025Z,14.10
2024-04-24T14:55:42.881Z,14.20
2024-04-24T14:58:12.955Z,14.10
2024-04-24T15:00:42.870Z,14.10
2024-04-24T15:03:12.601Z,14.10
2024-04-24T15:05:44.983Z,14.20
2024-04-24T15:08:14.887Z,14.40
2024-04-24T15:10:44.931Z,14.60
2024-04-24T15:13:14.697Z,14.60
2024-04-24T15:15:47.460Z,14.30
2024-04-24T15:18:17.493Z,14.30
2024-04-24T15:20:51.065Z,14.50
2024-04-24T15:23:18.322Z,14.40
2024-04-24T15:25:48.071Z,14.30
2024-04-24T15:28:17.803Z,14.20
2024-04-24T15:30:47.537Z,14.10
2024-04-24T15:33:17.545Z,14.00
2024-04-24T15:35:49.973Z,13.80
2024-04-24T15:38:19.724Z,13.70
2024-04-24T15:40:50.900Z,13.50
2024-04-24T15:43:20.577Z,13.60
2024-04-24T15:45:50.922Z,13.60
2024-04-24T15:48:20.787Z,13.50
2024-04-24T15:50:53.267Z,13.40
2024-04-24T15:53:23.158Z,13.50
2024-04-24T15:55:52.943Z,13.70
2024-04-24T15:58:22.754Z,13.70
2024-04-24T16:00:52.729Z,13.80
2024-04-24T16:03:22.649Z,14.00
2024-04-24T16:05:55.016Z,14.10
2024-04-24T16:08:22.240Z,14.20
2024-04-24T16:10:54.075Z,14.20
2024-04-24T16:13:23.960Z,13.90
2024-04-24T16:15:54.004Z,14.00
2024-04-24T16:18:29.997Z,13.80
2024-04-24T16:21:05.646Z,13.70
2024-04-24T16:23:35.519Z,13.70
2024-04-24T16:26:05.850Z,13.70
2024-04-24T16:28:35.594Z,13.80
2024-04-24T16:31:05.363Z,13.90
2024-04-24T16:33:35.154Z,14.10
2024-04-24T16:36:11.221Z,14.20
2024-04-24T16:38:38.724Z,14.30
2024-04-24T16:41:08.747Z,14.40
2024-04-24T16:43:38.485Z,14.50
2024-04-24T16:46:08.212Z,14.70
2024-04-24T16:48:37.994Z,14.70
2024-04-24T16:51:10.899Z,15.00
2024-04-24T16:53:40.688Z,15.20
2024-04-24T16:56:10.617Z,15.40
2024-04-24T16:58:40.290Z,15.30
2024-04-24T17:01:10.104Z,15.20
2024-04-24T17:03:39.877Z,15.20
2024-04-24T17:06:12.247Z,15.10
2024-04-24T17:08:41.971Z,14.60
2024-04-24T17:11:11.810Z,14.40
2024-04-24T17:13:41.745Z,14.20
2024-04-24T17:16:11.496Z,13.90
2024-04-24T17:18:41.236Z,13.60
2024-04-24T17:21:13.609Z,13.50
2024-04-24T17:23:43.374Z,13.30
2024-04-24T17:26:16.129Z,13.00
2024-04-24T17:28:48.236Z,12.90
2024-04-24T17:31:15.577Z,12.70
2024-04-24T17:33:45.294Z,12.50
2024-04-24T17:36:17.930Z,12.30
2024-04-24T17:38:47.717Z,12.20
2024-04-24T17:41:17.560Z,12.10
2024-04-24T17:43:47.360Z,11.90
2024-04-24T17:46:17.156Z,11.80
2024-04-24T17:48:46.982Z,11.80
2024-04-24T17:51:19.313Z,11.70
2024-04-24T17:53:49.125Z,11.70
2024-04-24T17:56:19.118Z,11.60
2024-04-24T17:58:48.998Z,11.60
2024-04-24T18:01:18.854Z,11.40
2024-04-24T18:03:49.371Z,11.30
2024-04-24T18:06:21.736Z,11.30
2024-04-24T18:08:51.416Z,11.20
2024-04-24T18:11:21.478Z,11.20
2024-04-24T18:13:51.820Z,11.10
2024-04-24T18:16:21.893Z,11.10
2024-04-24T18:18:54.844Z,11.10
2024-04-24T18:21:27.450Z,11.10
2024-04-24T18:23:57.291Z,11.10
2024-04-24T18:26:27.230Z,11.10
2024-04-24T18:28:57.167Z,11.10
2024-04-24T18:31:26.929Z,11.10
2024-04-24T18:33:56.837Z,11.00
2024-04-24T18:36:30.097Z,10.90
2024-04-24T18:39:00.003Z,10.90
2024-04-24T18:41:29.823Z,10.80
2024-04-24T18:43:59.908Z,10.70
2024-04-24T18:46:29.785Z,10.70
2024-04-24T18:49:01.322Z,10.70
2024-04-24T18:51:34.125Z,10.60
2024-04-24T18:54:03.879Z,10.60
2024-04-24T18:56:33.779Z,10.60
2024-04-24T18:59:03.981Z,10.60
2024-04-24T19:01:34.137Z,10.60
2024-04-24T19:04:12.596Z,10.60
2024-04-24T19:06:45.244Z,10.60
2024-04-24T19:09:15.169Z,10.60
2024-04-24T19:11:45.804Z,10.60
2024-04-24T19:14:15.697Z,10.50
2024-04-24T19:16:45.789Z,10.50
2024-04-24T19:19:15.578Z,10.50
2024-04-24T19:21:48.015Z,10.50
2024-04-24T19:24:18.115Z,10.50
2024-04-24T19:26:48.119Z,10.50
2024-04-24T19:29:17.997Z,10.50
2024-04-24T19:31:47.971Z,10.50
2024-04-24T19:34:17.848Z,10.50
2024-04-24T19:36:50.273Z,10.50
2024-04-24T19:39:20.266Z,10.40
2024-04-24T19:41:50.240Z,10.40
2024-04-24T19:44:20.827Z,10.40
2024-04-24T19:46:51.404Z,10.30
2024-04-24T19:49:21.450Z,10.30
2024-04-24T19:51:53.986Z,10.20
2024-04-24T19:54:22.275Z,10.20
2024-04-24T19:56:52.187Z,10.10
2024-04-24T19:59:22.155Z,10.00
2024-04-24T20:01:53.692Z,10.00
2024-04-24T20:04:23.533Z,10.00
2024-04-24T20:06:56.823Z,10.00
2024-04-24T20:09:29.601Z,10.00
2024-04-24T20:11:59.934Z,9.90
2024-04-24T20:14:30.863Z,9.90
2024-04-24T20:17:01.079Z,9.90
2024-04-24T20:19:34.114Z,9.80
2024-04-24T20:22:07.113Z,9.80
2024-04-24T20:24:37.087Z,9.80
2024-04-24T20:27:07.854Z,9.80
2024-04-24T20:29:37.923Z,9.80
2024-04-24T20:32:08.216Z,9.70
2024-04-24T20:34:38.066Z,9.70
2024-04-24T20:37:11.673Z,9.60
2024-04-24T20:39:43.330Z,9.70
2024-04-24T20:42:13.141Z,9.60
2024-04-24T20:44:43.048Z,9.60
2024-04-24T20:47:13.859Z,9.50
2024-04-24T20:49:43.678Z,9.50
2024-04-24T20:52:16.068Z,9.50
2024-04-24T20:54:48.421Z,9.40
2024-04-24T20:57:18.280Z,9.40
2024-04-24T20:59:48.045Z,9.40
2024-04-24T21:02:17.861Z,9.40
2024-04-24T21:04:47.787Z,9.30
2024-04-24T21:07:20.187Z,9.40
2024-04-24T21:09:50.056Z,9.30
2024-04-24T21:12:19.893Z,9.40
2024-04-24T21:14:50.049Z,9.40
2024-04-24T21:17:20.431Z,9.40
2024-04-24T21:19:50.316Z,9.40
2024-04-24T21:22:22.814Z,9.40
2024-04-24T21:24:52.553Z,9.50
2024-04-24T21:27:22.325Z,9.40
2024-04-24T21:29:53.351Z,9.50
2024-04-24T21:32:24.718Z,9.50
2024-04-24T21:34:54.661Z,9.50
2024-04-24T21:37:27.741Z,9.50
2024-04-24T21:39:57.557Z,9.50
2024-04-24T21:42:27.325Z,9.60
2024-04-24T21:44:57.174Z,9.60
2024-04-24T21:47:24.393Z,9.60
2024-04-24T21:49:54.287Z,9.60
2024-04-24T21:52:26.721Z,9.60
2024-04-24T21:54:56.810Z,9.60
2024-04-24T21:57:26.578Z,9.60
2024-04-24T21:59:56.323Z,9.60
2024-04-24T22:02:28.232Z,9.60
2024-04-24T22:05:18.691Z,9.50
2024-04-24T22:07:51.117Z,9.50
2024-04-24T22:10:20.934Z,9.50
2024-04-24T22:12:50.651Z,9.50
2024-04-24T22:15:20.494Z,9.40
2024-04-24T22:17:50.401Z,9.30
2024-04-24T22:20:23.100Z,9.30
2024-04-24T22:22:55.838Z,9.30
2024-04-24T22:25:25.633Z,9.20
2024-04-24T22:27:55.521Z,9.20
2024-04-24T22:30:27.048Z,9.20
2024-04-24T22:32:56.914Z,9.10
2024-04-24T22:35:29.719Z,9.10
2024-04-24T22:38:03.249Z,9.10
2024-04-24T22:40:33.110Z,9.20
2024-04-24T22:43:03.057Z,9.10
2024-04-24T22:45:32.922Z,9.10
2024-04-24T22:48:02.991Z,9.20
2024-04-24T22:50:33.505Z,9.20
2024-04-24T22:53:06.229Z,9.10
2024-04-24T22:55:37.109Z,9.20
2024-04-24T22:58:07.171Z,9.20
2024-04-24T23:00:37.003Z,9.20
2024-04-24T23:03:07.352Z,9.20
2024-04-24T23:05:37.293Z,9.20
2024-04-24T23:08:11.463Z,9.20
2024-04-24T23:10:41.379Z,9.10
2024-04-24T23:13:11.178Z,9.10
2024-04-24T23:15:40.931Z,9.10
2024-04-24T23:18:10.920Z,9.10
2024-04-24T23:20:41.294Z,9.20
2024-04-24T23:23:13.786Z,9.10
2024-04-24T23:25:43.589Z,9.10
2024-04-24T23:28:13.350Z,9.20
2024-04-24T23:30:43.326Z,9.10
2024-04-24T23:33:13.215Z,9.20
2024-04-24T23:35:43.135Z,9.10
2024-04-24T23:38:16.070Z,9.20
2024-04-24T23:40:46.086Z,9.20
2024-04-24T23:43:15.827Z,9.20
2024-04-24T23:45:45.652Z,9.20
2024-04-24T23:48:15.536Z,9.30
2024-04-24T23:50:45.891Z,9.30
2024-04-24T23:53:18.375Z,9.30
2024-04-24T23:55:48.135Z,9.30
2024-04-24T23:58:18.036Z,9.30
